Anthony, FL

10:10 AM EST on February 28, 2015 (GMT -0500)
K2ADA Radio Ranch | Change Station
CLOSE
Current Station
Personal Weather Station
Location: Anthony, FL
Elevation: 102 ft
Nearby Weather Stations

Elev 102 ft 29.33 °N, 82.08 °W | Updated 39 seconds ago

Overcast
Overcast
58.8 °F
Feels Like 58.8 °F
N
4.0
Wind Variable Wind from NNE
Gusts 4.0 mph

Today
High -- | Low -- °F
--% Chance of Precip.
Yesterday
High -- | Low -- °F
Precip. -- in
6:55 AM 6:27 PM
Waxing Gibbous, 78% visible
Pressure 30.38 in
Visibility 10.0 miles
Clouds Scattered Clouds 2500 ft
Mostly Cloudy 3500 ft
Dew Point 56 °F
Humidity 90%
Rainfall 0.00 in
Snow Depth Not available.
UV 3 out of 12
Pollen 9.80 out of 12
Air Quality Not available.
Flu Activity Not available.
METAR KOCF 281450Z 04005KT 10SM SCT025 BKN035. 14/12 A3038

More Conditions Fewer Conditions

Pressure 30.38 in
Visibility 10.0 miles
Clouds Scattered Clouds 2500 ft
Mostly Cloudy 3500 ft
Dew Point 56 °F
Humidity 90%
Rainfall 0.00 in
Snow Depth Not available.
UV 3 out of 12
Pollen 9.80 out of 12
Air Quality Not available.
Flu Activity Not available.
METAR KOCF 281450Z 04005KT 10SM SCT025 BKN035. 14/12 A3038

More Conditions Fewer Conditions

10-Day Weather Forecast

Almanac

Astronomy

Feb. 28, 2015 Rise Set
Actual Time
Civil Twilight
Nautical Twilight
Astronomical Twilight
Moon
Length of Visible Light
Length of Day
Tomorrow will be .
, % of the Moon is Illuminated

Today's Extremes

State Highs State Lows

Community

WunderPhotos

Upload Photos

1,801,032 photos uploaded!

WunderBlogs® & News

Nearby

Air Quality

  Air Quality AQ Index Pollutant
Not available.

Snow Depth

Station Depth Elevation

Earthquake Activity

City Distance Mag. Time & Date
Minimum magnitude displayed is 2.5.

Coastal Water Temperatures

Place Temperature

Nearby Weather Stations